Flight Track Log - Related Links

Times and Time Zones

All times are in EDT time to prevent confusion due to time zone crossing. See the SWA127 flight status page for this flight to view local times or setup timezone preferences in your user account.

Time Position Orientation Groundspeed Altitude Reporting Facility
EDT Latitude Longitude Course Direction KTS MPH feet Rate Location/Type
Wed 11:37:19 AM 29.6289 -95.2633 151° Southeast 155 178 800  Level Houston Center
Wed 11:37:43 AM 29.6133 -95.2533 151° Southeast 176 203 1,600 1,906 Climbing Houston Center
Wed 11:38:44 AM 29.5528 -95.2367 167° South 251 289 3,500 1,891 Climbing Houston Center
Wed 11:39:15 AM 29.5244 -95.2292 167° South 235 270 4,500 2,951 Climbing Houston Center
Wed 11:39:45 AM 29.4797 -95.2192 169° South 287 330 6,500 3,000 Climbing Houston Center
Wed 11:40:17 AM 29.4494 -95.2219 185° South 271 312 7,600 2,936 Climbing Houston Center
Wed 11:41:19 AM 29.3564 -95.2636 201° Southwest 303 349 11,100 2,903 Climbing Houston Center
Wed 11:42:21 AM 29.2733 -95.3100 206° Southwest 325 374 13,600 2,613 Climbing Houston Center
Wed 11:43:23 AM 29.1811 -95.3619 206° Southwest 364 419 16,500 2,565 Climbing Houston Center
Wed 11:44:25 AM 29.0878 -95.4158 207° Southwest 373 429 18,900 2,468 Climbing Houston Center
Wed 11:45:27 AM 28.9886 -95.4711 206° Southwest 391 450 21,600 2,419 Climbing Houston Center
Wed 11:46:29 AM 28.8911 -95.5272 207° Southwest 392 451 23,900 2,129 Climbing Houston Center
Wed 11:47:31 AM 28.7753 -95.6125 213° Southwest 414 476 26,000 2,032 Climbing Houston Center
Wed 11:48:33 AM 28.6819 -95.6897 216° Southwest 415 478 28,100 1,597 Climbing Houston Center
Wed 11:49:35 AM 28.5858 -95.7678 216° Southwest 422 486 29,300 1,440 Climbing Houston Center
Wed 11:50:38 AM 28.4883 -95.8494 216° Southwest 434 499 31,100 1,728 Climbing Houston Center
Wed 11:51:40 AM 28.3914 -95.9275 215° Southwest 426 490 32,900 1,403 Climbing Houston Center
Wed 11:52:42 AM 28.2922 -96.0100 216° Southwest 426 490 34,000 532 Climbing Houston Center
Wed 11:53:44 AM 28.1947 -96.0906 216° Southwest 431 496 34,000  Level Houston Center
Wed 11:54:46 AM 28.0797 -96.1839 216° Southwest 425 489 34,000  Level Houston Center
Wed 11:55:48 AM 27.9842 -96.2608 215° Southwest 422 486 34,000  Level Houston Center
Wed 11:56:50 AM 27.8911 -96.3358 215° Southwest 415 478 34,000  Level Houston Center
Wed 11:57:52 AM 27.7981 -96.4108 215° Southwest 411 473 34,000  Level Houston Center
Wed 11:58:55 AM 27.7047 -96.4867 216° Southwest 411 473 34,000  Level Houston Center
Wed 11:59:57 AM 27.6119 -96.5606 215° Southwest 410 472 34,000 -774 Level Houston Center
Wed 12:00:59 PM 27.5003 -96.6503 215° Southwest 410 472 32,400 -2,323 Descending Houston Center
Wed 12:02:01 PM 27.4081 -96.7253 216° Southwest 408 470 29,200 -2,758 Descending Houston Center
Wed 12:03:03 PM 27.3158 -96.7967 215° Southwest 406 467 26,700 -2,516 Descending Houston Center
Wed 12:04:05 PM 27.2164 -96.8778 216° Southwest 398 458 24,000 -2,442 Descending Houston Center
Wed 12:04:56 PM 27.1422 -96.9344 214° Southwest 391 450 22,100 -2,386 Descending Houston Center
Wed 12:05:33 PM 27.0864 -96.9800 216° Southwest 385 443 20,500 -2,384 Descending Houston Center
Wed 12:06:09 PM 27.0411 -97.0153 215° Southwest 385 443 19,200 -2,200 Descending Houston Center
Wed 12:06:33 PM 27.0053 -97.0453 217° Southwest 374 430 18,300 -2,190 Descending Houston Center
Wed 12:07:12 PM 26.9586 -97.0808 214° Southwest 372 428 16,900 -2,262 Descending Houston Center
Wed 12:07:34 PM 26.9183 -97.1139 216° Southwest 356 410 16,000 -871 Descending Houston Center
Wed 12:08:14 PM 26.8706 -97.1503 214° Southwest 352 405 16,000 -98 Level Houston Center
Wed 12:08:35 PM 26.8411 -97.1764 218° Southwest 345 397 15,900 -1,839 Descending Houston Center
Wed 12:09:16 PM 26.7856 -97.2172 213° Southwest 347 399 14,100 -2,656 Descending Houston Center
Wed 12:09:36 PM 26.7594 -97.2369 214° Southwest 350 403 13,200 -2,516 Descending Houston Center
Wed 12:10:18 PM 26.7050 -97.2811 216° Southwest 354 407 11,500 -2,300 Descending Houston Center
Wed 12:10:36 PM 26.6828 -97.3039 222° Southwest 353 406 10,900 -1,452 Descending Houston Center
Wed 12:11:20 PM 26.6464 -97.3692 238° Southwest 325 374 10,000 -1,180 Descending Houston Center
Wed 12:11:37 PM 26.6347 -97.3853 231° Southwest 302 348 9,700 -1,258 Descending Houston Center
Wed 12:12:22 PM 26.6025 -97.4433 238° Southwest 292 336 8,700 -1,574 Descending Houston Center
Wed 12:12:38 PM 26.5867 -97.4644 230° Southwest 273 314 8,100 -2,129 Descending Houston Center
Wed 12:13:24 PM 26.5564 -97.5183 238° Southwest 275 316 6,500 -1,944 Descending Houston Center
Wed 12:14:26 PM 26.5147 -97.5883 236° Southwest 273 314 4,600 -1,536 Descending Houston Center
Wed 12:15:29 PM 26.4628 -97.6525 228° Southwest 288 331 3,300 -930 Descending Houston Center
Wed 12:16:35 PM 26.3975 -97.6583 185° South 201 231 2,600 -614 Descending Houston Center
Wed 12:17:36 PM 26.3447 -97.6586 180° South 180 207 2,000 -750 Descending Houston Center
Wed 12:18:35 PM 26.2981 -97.6583 180° South 177 204 1,100 -744 Descending Houston Center
Wed 12:19:37 PM 26.2622 -97.6589 181° South 134 154 500 -581 Descending Houston Center
Wed 12:22:00 PM 26.2271 -97.6551 189° South  Level Estimated

Login

Don't have an account? Register now (free) for customized features, flight alerts, and more!